sensor_id;sensor_type;location;lat;lon;timestamp;pressure;altitude;pressure_sealevel;temperature;humidity
29935;BME280;19905;53.370;-6.314;2023-02-17T00:00:10;101055.88;;;11.86;100.00
29935;BME280;19905;53.370;-6.314;2023-02-17T00:02:42;101057.59;;;11.87;100.00
29935;BME280;19905;53.370;-6.314;2023-02-17T00:05:10;101035.56;;;11.86;100.00
29935;BME280;19905;53.370;-6.314;2023-02-17T00:07:39;101035.81;;;11.83;100.00
29935;BME280;19905;53.370;-6.314;2023-02-17T00:10:15;101040.00;;;11.86;100.00
29935;BME280;19905;53.370;-6.314;2023-02-17T00:12:47;101048.06;;;11.84;100.00
29935;BME280;19905;53.370;-6.314;2023-02-17T00:15:19;100989.97;;;11.83;100.00
29935;BME280;19905;53.370;-6.314;2023-02-17T00:17:48;101016.09;;;11.87;100.00
29935;BME280;19905;53.370;-6.314;2023-02-17T00:20:18;101011.84;;;11.85;100.00
29935;BME280;19905;53.370;-6.314;2023-02-17T00:22:46;100997.97;;;11.81;100.00
29935;BME280;19905;53.370;-6.314;2023-02-17T00:25:17;101004.09;;;11.82;100.00
29935;BME280;19905;53.370;-6.314;2023-02-17T00:27:48;100995.31;;;11.81;100.00
29935;BME280;19905;53.370;-6.314;2023-02-17T00:30:19;101006.44;;;11.86;100.00
29935;BME280;19905;53.370;-6.314;2023-02-17T00:32:49;100930.78;;;11.84;100.00
29935;BME280;19905;53.370;-6.314;2023-02-17T00:35:17;100996.59;;;11.88;100.00
29935;BME280;19905;53.370;-6.314;2023-02-17T00:37:46;101003.06;;;11.84;100.00
29935;BME280;19905;53.370;-6.314;2023-02-17T00:40:16;100997.78;;;11.84;100.00
29935;BME280;19905;53.370;-6.314;2023-02-17T00:42:47;100989.72;;;11.86;100.00
29935;BME280;19905;53.370;-6.314;2023-02-17T00:45:16;100995.84;;;11.86;100.00
29935;BME280;19905;53.370;-6.314;2023-02-17T00:47:45;101017.34;;;11.82;100.00
29935;BME280;19905;53.370;-6.314;2023-02-17T00:50:13;100995.31;;;11.81;100.00
29935;BME280;19905;53.370;-6.314;2023-02-17T00:52:43;101016.31;;;11.84;100.00
29935;BME280;19905;53.370;-6.314;2023-02-17T00:55:13;101007.19;;;11.88;100.00
29935;BME280;19905;53.370;-6.314;2023-02-17T00:57:41;101011.00;;;11.84;100.00
29935;BME280;19905;53.370;-6.314;2023-02-17T01:00:13;100997.66;;;11.86;100.00
29935;BME280;19905;53.370;-6.314;2023-02-17T01:02:42;101005.91;;;11.81;100.00
29935;BME280;19905;53.370;-6.314;2023-02-17T01:05:12;100977.56;;;11.83;100.00
29935;BME280;19905;53.370;-6.314;2023-02-17T01:07:43;100997.91;;;11.83;100.00
29935;BME280;19905;53.370;-6.314;2023-02-17T01:10:12;101000.63;;;11.81;100.00
29935;BME280;19905;53.370;-6.314;2023-02-17T01:12:41;100982.03;;;11.83;100.00
29935;BME280;19905;53.370;-6.314;2023-02-17T01:15:12;101025.53;;;11.79;100.00
29935;BME280;19905;53.370;-6.314;2023-02-17T01:17:41;100980.41;;;11.80;100.00
29935;BME280;19905;53.370;-6.314;2023-02-17T01:20:10;101012.53;;;11.76;100.00
29935;BME280;19905;53.370;-6.314;2023-02-17T01:22:39;100977.41;;;11.74;100.00
29935;BME280;19905;53.370;-6.314;2023-02-17T01:25:10;100977.50;;;11.72;100.00
29935;BME280;19905;53.370;-6.314;2023-02-17T01:27:38;100993.78;;;11.79;100.00
29935;BME280;19905;53.370;-6.314;2023-02-17T01:30:09;100997.25;;;11.79;100.00
29935;BME280;19905;53.370;-6.314;2023-02-17T01:32:40;100955.88;;;11.78;100.00
29935;BME280;19905;53.370;-6.314;2023-02-17T01:35:09;100936.19;;;11.82;100.00
29935;BME280;19905;53.370;-6.314;2023-02-17T01:37:39;100968.03;;;11.81;100.00
29935;BME280;19905;53.370;-6.314;2023-02-17T01:40:11;100950.34;;;11.81;100.00
29935;BME280;19905;53.370;-6.314;2023-02-17T01:42:40;100963.50;;;11.83;100.00
29935;BME280;19905;53.370;-6.314;2023-02-17T01:45:30;100950.97;;;11.85;100.00
29935;BME280;19905;53.370;-6.314;2023-02-17T01:48:03;100955.91;;;11.89;100.00
29935;BME280;19905;53.370;-6.314;2023-02-17T01:50:37;100931.97;;;11.91;100.00
29935;BME280;19905;53.370;-6.314;2023-02-17T01:53:09;100964.81;;;11.88;100.00
29935;BME280;19905;53.370;-6.314;2023-02-17T01:55:41;100973.94;;;11.95;100.00
29935;BME280;19905;53.370;-6.314;2023-02-17T01:58:14;100944.84;;;11.95;100.00
29935;BME280;19905;53.370;-6.314;2023-02-17T02:00:45;100954.47;;;11.97;100.00
29935;BME280;19905;53.370;-6.314;2023-02-17T02:03:16;100960.72;;;11.95;100.00
29935;BME280;19905;53.370;-6.314;2023-02-17T02:05:48;100952.19;;;12.03;100.00
29935;BME280;19905;53.370;-6.314;2023-02-17T02:08:18;100957.25;;;12.06;100.00
29935;BME280;19905;53.370;-6.314;2023-02-17T02:10:47;100932.69;;;12.04;100.00
29935;BME280;19905;53.370;-6.314;2023-02-17T02:13:15;100941.09;;;12.09;100.00
29935;BME280;19905;53.370;-6.314;2023-02-17T02:15:51;100939.31;;;12.10;100.00
29935;BME280;19905;53.370;-6.314;2023-02-17T02:18:42;100911.13;;;12.09;100.00
29935;BME280;19905;53.370;-6.314;2023-02-17T02:21:43;100937.63;;;12.09;100.00
29935;BME280;19905;53.370;-6.314;2023-02-17T02:24:32;100918.84;;;12.12;100.00
29935;BME280;19905;53.370;-6.314;2023-02-17T02:27:33;100893.72;;;12.06;100.00
29935;BME280;19905;53.370;-6.314;2023-02-17T02:30:20;100912.72;;;12.11;100.00
29935;BME280;19905;53.370;-6.314;2023-02-17T02:33:03;100903.94;;;12.11;100.00
29935;BME280;19905;53.370;-6.314;2023-02-17T02:35:41;100890.78;;;12.09;100.00
29935;BME280;19905;53.370;-6.314;2023-02-17T02:38:19;100886.22;;;12.11;100.00
29935;BME280;19905;53.370;-6.314;2023-02-17T02:40:55;100866.13;;;12.09;100.00
29935;BME280;19905;53.370;-6.314;2023-02-17T02:43:26;100891.75;;;12.08;100.00
29935;BME280;19905;53.370;-6.314;2023-02-17T02:45:56;100872.25;;;12.09;100.00
29935;BME280;19905;53.370;-6.314;2023-02-17T02:48:28;100886.59;;;12.07;100.00
29935;BME280;19905;53.370;-6.314;2023-02-17T02:51:13;100885.88;;;12.05;100.00
29935;BME280;19905;53.370;-6.314;2023-02-17T02:54:14;100846.41;;;12.02;100.00
29935;BME280;19905;53.370;-6.314;2023-02-17T02:57:03;100842.94;;;12.01;100.00
29935;BME280;19905;53.370;-6.314;2023-02-17T02:59:45;100846.41;;;12.02;100.00
29935;BME280;19905;53.370;-6.314;2023-02-17T03:02:26;100852.78;;;11.99;100.00
29935;BME280;19905;53.370;-6.314;2023-02-17T03:05:05;100849.91;;;12.02;100.00
29935;BME280;19905;53.370;-6.314;2023-02-17T03:07:40;100848.09;;;12.03;100.00
29935;BME280;19905;53.370;-6.314;2023-02-17T03:10:09;100899.84;;;12.07;100.00
29935;BME280;19905;53.370;-6.314;2023-02-17T03:12:39;100837.84;;;12.09;100.00
29935;BME280;19905;53.370;-6.314;2023-02-17T03:15:13;100831.69;;;12.09;100.00
29935;BME280;19905;53.370;-6.314;2023-02-17T03:17:44;100844.94;;;12.09;100.00
29935;BME280;19905;53.370;-6.314;2023-02-17T03:20:14;100834.25;;;12.10;100.00
29935;BME280;19905;53.370;-6.314;2023-02-17T03:22:45;100797.28;;;12.09;100.00
29935;BME280;19905;53.370;-6.314;2023-02-17T03:25:15;100812.84;;;12.02;100.00
29935;BME280;19905;53.370;-6.314;2023-02-17T03:27:44;100819.22;;;12.00;100.00
29935;BME280;19905;53.370;-6.314;2023-02-17T03:30:12;100812.72;;;12.04;100.00
29935;BME280;19905;53.370;-6.314;2023-02-17T03:32:47;100825.84;;;12.05;100.00
29935;BME280;19905;53.370;-6.314;2023-02-17T03:35:17;100817.03;;;12.05;100.00
29935;BME280;19905;53.370;-6.314;2023-02-17T03:37:46;100819.69;;;12.05;100.00
29935;BME280;19905;53.370;-6.314;2023-02-17T03:40:16;100824.97;;;12.05;100.00
29935;BME280;19905;53.370;-6.314;2023-02-17T03:42:44;100824.72;;;12.08;100.00
29935;BME280;19905;53.370;-6.314;2023-02-17T03:45:14;100869.03;;;12.06;100.00
29935;BME280;19905;53.370;-6.314;2023-02-17T03:47:43;100842.78;;;12.03;100.00
29935;BME280;19905;53.370;-6.314;2023-02-17T03:50:12;100853.53;;;12.01;100.00
29935;BME280;19905;53.370;-6.314;2023-02-17T03:52:42;100872.78;;;11.92;100.00
29935;BME280;19905;53.370;-6.314;2023-02-17T03:55:11;100874.00;;;11.88;100.00
29935;BME280;19905;53.370;-6.314;2023-02-17T03:57:42;100897.41;;;11.81;100.00
29935;BME280;19905;53.370;-6.314;2023-02-17T04:00:18;100921.00;;;11.73;100.00
29935;BME280;19905;53.370;-6.314;2023-02-17T04:02:52;100947.91;;;11.67;100.00
29935;BME280;19905;53.370;-6.314;2023-02-17T04:05:23;100936.97;;;11.60;100.00
29935;BME280;19905;53.370;-6.314;2023-02-17T04:07:53;100928.56;;;11.55;100.00
29935;BME280;19905;53.370;-6.314;2023-02-17T04:10:25;100941.41;;;11.49;100.00
29935;BME280;19905;53.370;-6.314;2023-02-17T04:12:53;100937.66;;;11.40;100.00
29935;BME280;19905;53.370;-6.314;2023-02-17T04:15:23;100957.34;;;11.36;100.00
29935;BME280;19905;53.370;-6.314;2023-02-17T04:17:51;100942.44;;;11.35;100.00
29935;BME280;19905;53.370;-6.314;2023-02-17T04:20:20;100969.84;;;11.34;100.00
29935;BME280;19905;53.370;-6.314;2023-02-17T04:22:50;100976.22;;;11.31;100.00
29935;BME280;19905;53.370;-6.314;2023-02-17T04:25:20;100978.97;;;11.30;100.00
29935;BME280;19905;53.370;-6.314;2023-02-17T04:27:49;100987.03;;;11.28;100.00
29935;BME280;19905;53.370;-6.314;2023-02-17T04:30:20;100977.66;;;11.24;100.00
29935;BME280;19905;53.370;-6.314;2023-02-17T04:32:49;100983.06;;;11.23;100.00
29935;BME280;19905;53.370;-6.314;2023-02-17T04:35:18;100971.38;;;11.25;100.00
29935;BME280;19905;53.370;-6.314;2023-02-17T04:37:46;100979.44;;;11.24;100.00
29935;BME280;19905;53.370;-6.314;2023-02-17T04:40:16;100981.25;;;11.23;100.00
29935;BME280;19905;53.370;-6.314;2023-02-17T04:42:49;100975.22;;;11.21;100.00
29935;BME280;19905;53.370;-6.314;2023-02-17T04:45:19;100993.00;;;11.19;100.00
29935;BME280;19905;53.370;-6.314;2023-02-17T04:47:54;101009.09;;;11.16;100.00
29935;BME280;19905;53.370;-6.314;2023-02-17T04:50:23;101009.56;;;11.10;100.00
29935;BME280;19905;53.370;-6.314;2023-02-17T04:52:51;101058.09;;;11.09;100.00
29935;BME280;19905;53.370;-6.314;2023-02-17T04:55:22;100996.56;;;11.07;100.00
29935;BME280;19905;53.370;-6.314;2023-02-17T04:57:53;101026.47;;;11.07;100.00
29935;BME280;19905;53.370;-6.314;2023-02-17T05:00:22;101006.41;;;11.05;100.00
29935;BME280;19905;53.370;-6.314;2023-02-17T05:02:51;101021.44;;;11.04;100.00
29935;BME280;19905;53.370;-6.314;2023-02-17T05:05:19;101009.91;;;11.05;100.00
29935;BME280;19905;53.370;-6.314;2023-02-17T05:07:49;101004.50;;;11.07;100.00
29935;BME280;19905;53.370;-6.314;2023-02-17T05:10:18;101034.41;;;11.07;100.00
29935;BME280;19905;53.370;-6.314;2023-02-17T05:12:49;101025.50;;;11.08;100.00
29935;BME280;19905;53.370;-6.314;2023-02-17T05:15:21;101026.13;;;11.12;100.00
29935;BME280;19905;53.370;-6.314;2023-02-17T05:17:49;101032.16;;;11.14;100.00
29935;BME280;19905;53.370;-6.314;2023-02-17T05:20:18;101035.53;;;11.16;100.00
29935;BME280;19905;53.370;-6.314;2023-02-17T05:22:49;101029.28;;;11.17;100.00
29935;BME280;19905;53.370;-6.314;2023-02-17T05:25:18;101040.69;;;11.17;100.00
29935;BME280;19905;53.370;-6.314;2023-02-17T05:27:47;101061.75;;;11.19;100.00
29935;BME280;19905;53.370;-6.314;2023-02-17T05:30:23;101036.38;;;11.16;100.00
29935;BME280;19905;53.370;-6.314;2023-02-17T05:32:53;101068.22;;;11.15;100.00
29935;BME280;19905;53.370;-6.314;2023-02-17T05:35:22;101061.25;;;11.14;100.00
29935;BME280;19905;53.370;-6.314;2023-02-17T05:40:22;101072.16;;;11.09;100.00
29935;BME280;19905;53.370;-6.314;2023-02-17T05:42:51;101074.56;;;11.12;100.00
29935;BME280;19905;53.370;-6.314;2023-02-17T05:45:22;101081.66;;;11.12;100.00
29935;BME280;19905;53.370;-6.314;2023-02-17T05:47:51;101076.63;;;11.09;100.00
29935;BME280;19905;53.370;-6.314;2023-02-17T05:50:21;101097.84;;;11.07;100.00
29935;BME280;19905;53.370;-6.314;2023-02-17T05:52:49;101091.50;;;11.10;100.00
29935;BME280;19905;53.370;-6.314;2023-02-17T05:55:18;101073.97;;;11.09;100.00
29935;BME280;19905;53.370;-6.314;2023-02-17T05:57:49;101088.88;;;11.10;100.00
29935;BME280;19905;53.370;-6.314;2023-02-17T06:00:18;101083.59;;;11.10;100.00
29935;BME280;19905;53.370;-6.314;2023-02-17T06:02:48;101106.53;;;11.09;100.00
29935;BME280;19905;53.370;-6.314;2023-02-17T06:05:17;101094.38;;;11.07;100.00
29935;BME280;19905;53.370;-6.314;2023-02-17T06:07:47;101073.69;;;11.01;100.00
29935;BME280;19905;53.370;-6.314;2023-02-17T06:10:15;101083.63;;;10.97;100.00
29935;BME280;19905;53.370;-6.314;2023-02-17T06:12:44;101094.06;;;10.99;100.00
29935;BME280;19905;53.370;-6.314;2023-02-17T06:15:12;101089.63;;;10.99;100.00
29935;BME280;19905;53.370;-6.314;2023-02-17T06:17:42;101106.88;;;11.05;100.00
29935;BME280;19905;53.370;-6.314;2023-02-17T06:20:14;101087.19;;;11.09;100.00
29935;BME280;19905;53.370;-6.314;2023-02-17T06:22:42;101095.00;;;11.10;100.00
29935;BME280;19905;53.370;-6.314;2023-02-17T06:25:12;101104.06;;;11.19;100.00
29935;BME280;19905;53.370;-6.314;2023-02-17T06:27:41;101095.88;;;11.22;100.00
29935;BME280;19905;53.370;-6.314;2023-02-17T06:30:11;101109.53;;;11.29;100.00
29935;BME280;19905;53.370;-6.314;2023-02-17T06:32:42;101141.88;;;11.32;100.00
29935;BME280;19905;53.370;-6.314;2023-02-17T06:35:10;101129.59;;;11.31;100.00
29935;BME280;19905;53.370;-6.314;2023-02-17T06:37:40;101129.59;;;11.31;100.00
29935;BME280;19905;53.370;-6.314;2023-02-17T06:40:11;101144.25;;;11.24;100.00
29935;BME280;19905;53.370;-6.314;2023-02-17T06:42:39;101135.50;;;11.11;100.00
29935;BME280;19905;53.370;-6.314;2023-02-17T06:45:08;101151.50;;;10.84;100.00
29935;BME280;19905;53.370;-6.314;2023-02-17T06:47:37;101163.81;;;10.72;100.00
29935;BME280;19905;53.370;-6.314;2023-02-17T06:50:07;101167.50;;;10.69;100.00
29935;BME280;19905;53.370;-6.314;2023-02-17T06:52:41;101161.56;;;10.66;100.00
29935;BME280;19905;53.370;-6.314;2023-02-17T06:55:15;101173.31;;;10.62;100.00
29935;BME280;19905;53.370;-6.314;2023-02-17T06:57:44;101176.91;;;10.61;100.00
29935;BME280;19905;53.370;-6.314;2023-02-17T07:00:14;101176.25;;;10.57;100.00
29935;BME280;19905;53.370;-6.314;2023-02-17T07:02:44;101229.41;;;10.53;100.00
29935;BME280;19905;53.370;-6.314;2023-02-17T07:05:13;101190.75;;;10.52;100.00
29935;BME280;19905;53.370;-6.314;2023-02-17T07:08:03;101190.75;;;10.52;100.00
29935;BME280;19905;53.370;-6.314;2023-02-17T07:10:32;101213.78;;;10.50;100.00
29935;BME280;19905;53.370;-6.314;2023-02-17T07:13:04;101252.66;;;10.48;100.00
29935;BME280;19905;53.370;-6.314;2023-02-17T07:15:33;101237.75;;;10.47;100.00
29935;BME280;19905;53.370;-6.314;2023-02-17T07:18:02;101246.97;;;10.54;100.00
29935;BME280;19905;53.370;-6.314;2023-02-17T07:20:31;101249.50;;;10.55;100.00
29935;BME280;19905;53.370;-6.314;2023-02-17T07:23:02;101244.22;;;10.55;100.00
29935;BME280;19905;53.370;-6.314;2023-02-17T07:25:30;101247.59;;;10.57;100.00
29935;BME280;19905;53.370;-6.314;2023-02-17T07:27:59;101258.69;;;10.62;100.00
29935;BME280;19905;53.370;-6.314;2023-02-17T07:30:27;101277.78;;;10.53;100.00
29935;BME280;19905;53.370;-6.314;2023-02-17T07:32:56;101284.25;;;10.49;100.00
29935;BME280;19905;53.370;-6.314;2023-02-17T07:35:25;101270.47;;;10.44;100.00
29935;BME280;19905;53.370;-6.314;2023-02-17T07:37:56;101314.66;;;10.42;100.00
29935;BME280;19905;53.370;-6.314;2023-02-17T07:40:27;101346.44;;;10.40;100.00
29935;BME280;19905;53.370;-6.314;2023-02-17T07:42:58;101308.72;;;10.38;100.00
29935;BME280;19905;53.370;-6.314;2023-02-17T07:45:26;101333.84;;;10.31;100.00
29935;BME280;19905;53.370;-6.314;2023-02-17T07:47:55;101324.44;;;10.27;100.00
29935;BME280;19905;53.370;-6.314;2023-02-17T07:50:24;101321.78;;;10.27;100.00
29935;BME280;19905;53.370;-6.314;2023-02-17T07:52:53;101311.41;;;10.24;100.00
29935;BME280;19905;53.370;-6.314;2023-02-17T07:55:22;101326.69;;;10.19;100.00
29935;BME280;19905;53.370;-6.314;2023-02-17T07:57:53;101310.72;;;10.21;100.00
29935;BME280;19905;53.370;-6.314;2023-02-17T08:00:22;101342.63;;;10.17;100.00
29935;BME280;19905;53.370;-6.314;2023-02-17T08:02:50;101337.13;;;10.21;100.00
29935;BME280;19905;53.370;-6.314;2023-02-17T08:05:21;101359.94;;;10.22;100.00
29935;BME280;19905;53.370;-6.314;2023-02-17T08:07:50;101366.88;;;10.24;100.00
29935;BME280;19905;53.370;-6.314;2023-02-17T08:10:40;101339.78;;;10.21;100.00
29935;BME280;19905;53.370;-6.314;2023-02-17T08:13:27;101349.69;;;10.17;100.00
29935;BME280;19905;53.370;-6.314;2023-02-17T08:15:57;101335.75;;;10.15;100.00
29935;BME280;19905;53.370;-6.314;2023-02-17T08:18:26;101343.56;;;10.16;100.00
29935;BME280;19905;53.370;-6.314;2023-02-17T08:21:02;101344.03;;;10.23;100.00
29935;BME280;19905;53.370;-6.314;2023-02-17T08:23:38;101324.69;;;10.23;100.00
29935;BME280;19905;53.370;-6.314;2023-02-17T08:26:07;101330.06;;;10.21;100.00
29935;BME280;19905;53.370;-6.314;2023-02-17T08:28:37;101357.22;;;10.23;100.00
29935;BME280;19905;53.370;-6.314;2023-02-17T08:31:05;101339.50;;;10.25;100.00
29935;BME280;19905;53.370;-6.314;2023-02-17T08:33:42;101343.66;;;10.29;100.00
29935;BME280;19905;53.370;-6.314;2023-02-17T08:36:12;101382.41;;;10.29;100.00
29935;BME280;19905;53.370;-6.314;2023-02-17T08:38:41;101348.94;;;10.29;100.00
29935;BME280;19905;53.370;-6.314;2023-02-17T08:41:16;101374.31;;;10.32;100.00
29935;BME280;19905;53.370;-6.314;2023-02-17T08:43:48;101346.09;;;10.32;100.00
29935;BME280;19905;53.370;-6.314;2023-02-17T08:46:21;101370.72;;;10.33;100.00
29935;BME280;19905;53.370;-6.314;2023-02-17T08:48:50;101354.22;;;10.29;100.00
29935;BME280;19905;53.370;-6.314;2023-02-17T08:51:20;101375.88;;;10.34;100.00
29935;BME280;19905;53.370;-6.314;2023-02-17T08:53:53;101385.50;;;10.35;100.00
29935;BME280;19905;53.370;-6.314;2023-02-17T08:56:24;101378.44;;;10.36;100.00
29935;BME280;19905;53.370;-6.314;2023-02-17T08:58:55;101411.53;;;10.41;100.00
29935;BME280;19905;53.370;-6.314;2023-02-17T09:01:25;101402.66;;;10.42;100.00
29935;BME280;19905;53.370;-6.314;2023-02-17T09:03:55;101401.03;;;10.40;100.00
29935;BME280;19905;53.370;-6.314;2023-02-17T09:06:31;101405.09;;;10.46;100.00
29935;BME280;19905;53.370;-6.314;2023-02-17T09:09:01;101407.94;;;10.42;100.00
29935;BME280;19905;53.370;-6.314;2023-02-17T09:11:29;101443.94;;;10.43;100.00
29935;BME280;19905;53.370;-6.314;2023-02-17T09:13:59;101437.94;;;10.41;100.00
29935;BME280;19905;53.370;-6.314;2023-02-17T09:16:28;101449.44;;;10.40;100.00
29935;BME280;19905;53.370;-6.314;2023-02-17T09:18:57;101460.94;;;10.39;100.00
29935;BME280;19905;53.370;-6.314;2023-02-17T09:21:26;101466.22;;;10.39;100.00
29935;BME280;19905;53.370;-6.314;2023-02-17T09:23:55;101468.78;;;10.41;100.00
29935;BME280;19905;53.370;-6.314;2023-02-17T09:26:24;101474.91;;;10.41;100.00
29935;BME280;19905;53.370;-6.314;2023-02-17T09:28:53;101495.09;;;10.42;100.00
29935;BME280;19905;53.370;-6.314;2023-02-17T09:31:25;101501.59;;;10.51;100.00
29935;BME280;19905;53.370;-6.314;2023-02-17T09:33:55;101500.84;;;10.49;100.00
29935;BME280;19905;53.370;-6.314;2023-02-17T09:36:26;101479.50;;;10.52;100.00
29935;BME280;19905;53.370;-6.314;2023-02-17T09:38:56;101471.75;;;10.63;100.00
29935;BME280;19905;53.370;-6.314;2023-02-17T09:41:28;101505.81;;;10.68;100.00
29935;BME280;19905;53.370;-6.314;2023-02-17T09:43:59;101508.22;;;10.71;100.00
29935;BME280;19905;53.370;-6.314;2023-02-17T09:46:34;101511.41;;;10.76;100.00
29935;BME280;19905;53.370;-6.314;2023-02-17T09:49:09;101507.00;;;10.77;100.00
29935;BME280;19905;53.370;-6.314;2023-02-17T09:51:42;101523.59;;;10.79;100.00
29935;BME280;19905;53.370;-6.314;2023-02-17T09:54:16;101525.09;;;10.83;100.00
29935;BME280;19905;53.370;-6.314;2023-02-17T09:56:50;101538.03;;;10.87;100.00
29935;BME280;19905;53.370;-6.314;2023-02-17T09:59:24;101532.75;;;10.87;100.00
29935;BME280;19905;53.370;-6.314;2023-02-17T10:01:57;101528.09;;;10.91;100.00
29935;BME280;19905;53.370;-6.314;2023-02-17T10:04:32;101553.00;;;11.01;100.00
29935;BME280;19905;53.370;-6.314;2023-02-17T10:07:08;101540.44;;;11.05;100.00
29935;BME280;19905;53.370;-6.314;2023-02-17T10:09:46;101549.88;;;11.09;100.00
29935;BME280;19905;53.370;-6.314;2023-02-17T10:12:20;101546.44;;;11.07;100.00
29935;BME280;19905;53.370;-6.314;2023-02-17T10:14:53;101550.06;;;11.06;100.00
29935;BME280;19905;53.370;-6.314;2023-02-17T10:17:33;101557.88;;;11.07;100.00
29935;BME280;19905;53.370;-6.314;2023-02-17T10:20:06;101563.81;;;11.11;100.00
29935;BME280;19905;53.370;-6.314;2023-02-17T10:22:41;101576.19;;;11.10;100.00
29935;BME280;19905;53.370;-6.314;2023-02-17T10:25:14;101567.19;;;11.13;100.00
29935;BME280;19905;53.370;-6.314;2023-02-17T10:27:47;101572.84;;;11.21;100.00
29935;BME280;19905;53.370;-6.314;2023-02-17T10:30:27;101561.31;;;11.22;100.00
29935;BME280;19905;53.370;-6.314;2023-02-17T10:33:07;101578.06;;;11.23;100.00
29935;BME280;19905;53.370;-6.314;2023-02-17T10:35:50;101580.47;;;11.26;100.00
29935;BME280;19905;53.370;-6.314;2023-02-17T10:38:33;101576.56;;;11.31;100.00
29935;BME280;19905;53.370;-6.314;2023-02-17T10:41:08;101588.03;;;11.32;100.00
29935;BME280;19905;53.370;-6.314;2023-02-17T10:43:40;101589.50;;;11.36;100.00
29935;BME280;19905;53.370;-6.314;2023-02-17T10:46:12;101586.00;;;11.35;100.00
29935;BME280;19905;53.370;-6.314;2023-02-17T10:48:46;101599.22;;;11.35;100.00
29935;BME280;19905;53.370;-6.314;2023-02-17T10:51:20;101603.78;;;11.33;100.00
29935;BME280;19905;53.370;-6.314;2023-02-17T10:53:53;101595.69;;;11.22;100.00
29935;BME280;19905;53.370;-6.314;2023-02-17T10:56:25;101599.28;;;11.21;100.00
29935;BME280;19905;53.370;-6.314;2023-02-17T10:59:01;101603.63;;;11.22;100.00
29935;BME280;19905;53.370;-6.314;2023-02-17T11:01:32;101613.75;;;11.15;100.00
29935;BME280;19905;53.370;-6.314;2023-02-17T11:04:04;101628.41;;;11.07;100.00
29935;BME280;19905;53.370;-6.314;2023-02-17T11:06:37;101638.72;;;10.97;100.00
29935;BME280;19905;53.370;-6.314;2023-02-17T11:09:18;101634.75;;;10.90;100.00
29935;BME280;19905;53.370;-6.314;2023-02-17T11:11:52;101643.19;;;10.82;100.00
29935;BME280;19905;53.370;-6.314;2023-02-17T11:14:26;101654.06;;;10.78;100.00
29935;BME280;19905;53.370;-6.314;2023-02-17T11:16:56;101664.41;;;10.66;100.00
29935;BME280;19905;53.370;-6.314;2023-02-17T11:19:29;101668.97;;;10.64;100.00
29935;BME280;19905;53.370;-6.314;2023-02-17T11:22:01;101677.84;;;10.63;100.00
29935;BME280;19905;53.370;-6.314;2023-02-17T11:24:32;101687.47;;;10.64;100.00
29935;BME280;19905;53.370;-6.314;2023-02-17T11:27:04;101695.47;;;10.63;100.00
29935;BME280;19905;53.370;-6.314;2023-02-17T11:29:38;101700.84;;;10.61;100.00
29935;BME280;19905;53.370;-6.314;2023-02-17T11:32:10;101702.34;;;10.65;100.00
29935;BME280;19905;53.370;-6.314;2023-02-17T11:34:42;101705.09;;;10.64;100.00
29935;BME280;19905;53.370;-6.314;2023-02-17T11:37:19;101705.84;;;10.66;100.00
29935;BME280;19905;53.370;-6.314;2023-02-17T11:39:51;101694.53;;;10.64;100.00
29935;BME280;19905;53.370;-6.314;2023-02-17T11:42:22;101701.69;;;10.62;100.00
29935;BME280;19905;53.370;-6.314;2023-02-17T11:44:53;101703.97;;;10.54;100.00
29935;BME280;19905;53.370;-6.314;2023-02-17T11:47:30;101705.63;;;10.40;100.00
29935;BME280;19905;53.370;-6.314;2023-02-17T11:50:19;101718.19;;;10.37;100.00
29935;BME280;19905;53.370;-6.314;2023-02-17T11:53:23;101713.22;;;10.31;100.00
29935;BME280;19905;53.370;-6.314;2023-02-17T11:56:04;101713.16;;;10.32;100.00
29935;BME280;19905;53.370;-6.314;2023-02-17T11:58:58;101708.47;;;10.37;100.00
29935;BME280;19905;53.370;-6.314;2023-02-17T12:01:43;101709.81;;;10.45;100.00
29935;BME280;19905;53.370;-6.314;2023-02-17T12:04:26;101714.31;;;10.42;100.00
29935;BME280;19905;53.370;-6.314;2023-02-17T12:07:20;101715.25;;;10.41;100.00
29935;BME280;19905;53.370;-6.314;2023-02-17T12:10:02;101714.31;;;10.42;100.00
29935;BME280;19905;53.370;-6.314;2023-02-17T12:15:35;101724.13;;;10.40;100.00
29935;BME280;19905;53.370;-6.314;2023-02-17T12:18:20;101722.41;;;10.39;100.00
29935;BME280;19905;53.370;-6.314;2023-02-17T12:20:58;101716.56;;;10.49;100.00
29935;BME280;19905;53.370;-6.314;2023-02-17T12:24:01;101718.88;;;10.69;100.00
29935;BME280;19905;53.370;-6.314;2023-02-17T12:26:37;101725.19;;;10.81;100.00
29935;BME280;19905;53.370;-6.314;2023-02-17T12:29:25;101719.34;;;10.76;100.00
29935;BME280;19905;53.370;-6.314;2023-02-17T12:32:13;101721.25;;;10.74;100.00
29935;BME280;19905;53.370;-6.314;2023-02-17T12:34:50;101708.88;;;10.74;100.00
29935;BME280;19905;53.370;-6.314;2023-02-17T12:37:23;101710.22;;;10.81;100.00
29935;BME280;19905;53.370;-6.314;2023-02-17T12:39:59;101710.28;;;10.80;100.00
29935;BME280;19905;53.370;-6.314;2023-02-17T12:42:34;101711.97;;;10.81;100.00
29935;BME280;19905;53.370;-6.314;2023-02-17T12:45:15;101700.28;;;10.71;100.00
29935;BME280;19905;53.370;-6.314;2023-02-17T12:47:49;101706.34;;;10.73;100.00
29935;BME280;19905;53.370;-6.314;2023-02-17T12:50:25;101708.13;;;10.72;100.00
29935;BME280;19905;53.370;-6.314;2023-02-17T12:53:00;101691.22;;;10.75;100.00
29935;BME280;19905;53.370;-6.314;2023-02-17T12:55:36;101698.97;;;10.78;100.00
29935;BME280;19905;53.370;-6.314;2023-02-17T12:58:15;101700.38;;;10.83;100.00
29935;BME280;19905;53.370;-6.314;2023-02-17T13:00:47;101701.06;;;10.87;100.00
29935;BME280;19905;53.370;-6.314;2023-02-17T13:03:18;101696.44;;;10.90;100.00